• Join FlightAware (Why Join?)
  • Login
  • US Flag 
08:31PM EDT


 

Airport Tracker/Info


-or-


 

Live Flight TrackerFlight Track Log ✈ SWA561 ✈ 12-May-2013 ✈ KLAX - KTUS

Flight Track Log - Related Links

Times and Time Zones

All times are in EDT time to prevent confusion due to time zone crossing. See the SWA561 flight status page for this flight to view local times or setup timezone preferences in your user account.

Time Position Orientation Groundspeed Altitude Reporting Facility
EDT Latitude Longitude Course Direction KTS MPH feet Rate Location/Type
09:35PM 33.8722 -118.4961 210° Southwest 233 268 3,800  Level Los Angeles Center
09:36PM 33.7944 -118.5092 188° South 274 315 6,500 3,000 Climbing Los Angeles Center
09:37PM 33.7139 -118.5114 181° South 298 343 10,000 3,000 Climbing Los Angeles Center
09:38PM 33.6686 -118.4275 123° Southeast 319 367 12,800 3,240 Climbing Los Angeles Center
09:39PM 33.6433 -118.3019 104° East 339 390 16,700 2,040 Climbing Los Angeles Center
09:40PM 33.6426 -118.3685 121° Southeast  Level FlightAware Approximate
09:40PM 33.6442 -118.1903 89° East 342 394 17,000  Level Los Angeles Center
09:41PM 33.6447 -118.0794 90° East 338 389 17,000 720 Level Los Angeles Center
09:43PM 33.6439 -117.9642 90° East 346 398 18,500 1,980 Climbing Los Angeles Center
09:44PM 33.6436 -117.8433 90° East 362 417 21,200 2,340 Climbing Los Angeles Center
09:45PM 33.6439 -117.7161 90° East 380 437 23,300 2,340 Climbing Los Angeles Center
09:46PM 33.6431 -117.5550 90° East 403 464 26,100 2,460 Climbing Los Angeles Center
09:47PM 33.6386 -117.4200 92° East 408 470 28,400 2,040 Climbing Los Angeles Center
09:48PM 33.6206 -117.2822 99° East 417 480 30,300 1,800 Climbing Los Angeles Center
09:49PM 33.6025 -117.1433 99° East 423 487 32,100 1,740 Climbing Los Angeles Center
09:50PM 33.5819 -116.9842 99° East 435 501 33,900 1,800 Climbing Los Angeles Center
09:51PM 33.5639 -116.8436 99° East 427 491 35,900 1,800 Climbing Los Angeles Center
09:52PM 33.5469 -116.7069 98° East 417 480 37,700 1,200 Climbing Los Angeles Center
09:53PM 33.5297 -116.5700 99° East 414 476 38,500 600 Climbing Los Angeles Center
09:54PM 33.5106 -116.4281 99° East 426 490 39,000 240 Climbing Los Angeles Center
09:55PM 33.4914 -116.2881 99° East 424 488 39,000  Level Los Angeles Center
09:56PM 33.4733 -116.1481 99° East 425 489 39,000  Level Los Angeles Center
09:57PM 33.4547 -116.0094 99° East 421 484 39,000  Level Los Angeles Center
09:58PM 33.4317 -115.8464 100° East 414 476 39,000  Level Los Angeles Center
09:59PM 33.4142 -115.7142 99° East 405 466 39,000  Level Los Angeles Center
10:00PM 33.3950 -115.5794 100° East 408 470 39,000  Level Los Angeles Center
10:01PM 33.3772 -115.4456 99° East 409 471 39,000  Level Los Angeles Center
10:02PM 33.3561 -115.3125 101° East 407 468 39,000  Level Los Angeles Center
10:03PM 33.3375 -115.1803 100° East 402 463 39,000  Level Los Angeles Center
10:04PM 33.3203 -115.0494 99° East 401 461 39,000  Level Los Angeles Center
10:05PM 33.3006 -114.9192 100° East 398 458 39,000  Level Los Angeles Center
10:06PM 33.2825 -114.7903 99° East 394 453 39,000  Level Los Angeles Center
10:07PM 33.2594 -114.6386 100° East 390 449 39,000  Level Los Angeles Center
10:08PM 33.2414 -114.4967 99° East 387 445 39,000  Level Albuquerque Center
10:09PM 33.2225 -114.3700 100° East 387 445 39,000  Level Albuquerque Center
10:10PM 33.2042 -114.2425 100° East 391 450 39,000  Level Albuquerque Center
10:11PM 33.1847 -114.1153 100° East 390 449 39,000  Level Albuquerque Center
10:12PM 33.1650 -113.9878 100° East 391 450 39,000  Level Albuquerque Center
10:13PM 33.1453 -113.8606 100° East 390 449 39,000 -420 Level Albuquerque Center
10:14PM 33.1253 -113.7319 100° East 392 451 38,200 -900 Descending Albuquerque Center
10:15PM 33.1056 -113.6036 100° East 394 453 37,200 -960 Descending Albuquerque Center
10:16PM 33.0803 -113.4769 103° East 393 452 36,300 -960 Descending Albuquerque Center
10:17PM 33.0361 -113.3556 113° Southeast 397 457 35,300 -960 Descending Albuquerque Center
10:18PM 32.9947 -113.2347 112° Southeast 396 456 34,400 -900 Descending Albuquerque Center
10:20PM 32.9542 -113.1200 113° Southeast 382 440 33,500 -720 Descending Albuquerque Center
10:21PM 32.9075 -112.9844 112° Southeast 370 426 33,000 -300 Descending Albuquerque Center
10:22PM 32.8678 -112.8694 112° Southeast 371 427 33,000  Level Albuquerque Center
10:23PM 32.8269 -112.7522 112° Southeast 378 435 33,000 -660 Level Albuquerque Center
10:24PM 32.7856 -112.6375 113° Southeast 378 435 31,700 -1,620 Descending Albuquerque Center
10:25PM 32.7478 -112.5275 112° Southeast 366 421 29,700 -1,920 Descending Albuquerque Center
10:26PM 32.7114 -112.4244 113° Southeast 347 399 27,800 -1,800 Descending Albuquerque Center
10:27PM 32.6753 -112.3244 113° Southeast 335 386 26,100 -1,860 Descending Albuquerque Center
10:28PM 32.6381 -112.2175 112° Southeast 332 382 24,100 -1,860 Descending Albuquerque Center
10:29PM 32.6022 -112.1172 113° Southeast 332 382 22,300 -1,800 Descending Albuquerque Center
10:30PM 32.5678 -112.0200 113° Southeast 325 374 20,500 -1,860 Descending Albuquerque Center
10:30PM 32.5478 -111.9711 116° Southeast 324 373 19,700 -1,680 Descending Albuquerque Center
10:31PM 32.5336 -111.9247 110° East 319 367 18,800 -1,680 Descending Albuquerque Center
10:31PM 32.5103 -111.8622 114° Southeast 313 360 17,700 -1,620 Descending Albuquerque Center
10:32PM 32.5006 -111.8311 110° East 312 359 17,200 -1,740 Descending Albuquerque Center
10:32PM 32.4750 -111.7656 115° Southeast 314 361 16,000 -1,500 Descending Albuquerque Center
10:33PM 32.4669 -111.7361 108° East 314 361 15,700 -1,680 Descending Albuquerque Center
10:33PM 32.4419 -111.6708 114° Southeast 309 356 14,300 -1,920 Descending Albuquerque Center
10:34PM 32.4361 -111.6428 104° East 308 354 13,800 -1,620 Descending Albuquerque Center
10:34PM 32.4117 -111.5781 114° Southeast 303 349 12,700 -1,680 Descending Albuquerque Center
10:35PM 32.4050 -111.5517 107° East 302 348 12,100 -1,620 Descending Albuquerque Center
10:35PM 32.3817 -111.4875 113° Southeast 301 346 11,100 -1,080 Descending Albuquerque Center
10:36PM 32.3683 -111.4428 109° East 299 344 11,000 -120 Descending Albuquerque Center
10:36PM 32.3486 -111.3931 115° Southeast 294 338 11,000 -240 Level Albuquerque Center
10:37PM 32.3383 -111.3567 108° East 289 333 10,800 -1,020 Descending Albuquerque Center
10:37PM 32.3203 -111.3122 116° Southeast 270 311 10,000 -1,500 Descending Albuquerque Center
10:38PM 32.3117 -111.2781 107° East 266 306 9,300 -1,320 Descending Albuquerque Center
10:38PM 32.2939 -111.2311 114° Southeast 263 303 8,700 -1,320 Descending Albuquerque Center
10:39PM 32.2844 -111.2000 110° East 259 298 8,000 -1,680 Descending Albuquerque Center
10:39PM 32.2689 -111.1572 113° Southeast 249 287 7,000 -1,620 Descending Albuquerque Center
10:40PM 32.2600 -111.1267 109° East 247 284 6,400 -1,500 Descending Albuquerque Center
10:40PM 32.2436 -111.0933 120° Southeast 222 255 5,500 -1,140 Descending Albuquerque Center
10:41PM 32.2350 -111.0622 108° East 236 272 5,300 -660 Descending Albuquerque Center
10:41PM 32.2122 -111.0539 163° South 180 207 4,900 -840 Descending Albuquerque Center
10:42PM 32.2011 -111.0250 114° Southeast 204 235 4,500 -900 Descending Albuquerque Center
10:42PM 32.1789 -111.0150 159° South 168 193 4,000 -720 Descending Albuquerque Center
10:43PM 32.1628 -110.9931 131° Southeast 179 206 3,800 -660 Descending Albuquerque Center
10:43PM 32.1536 -110.9842 141° Southeast 143 165 3,400 -840 Descending Albuquerque Center
10:44PM 32.1264 -110.9539 137° Southeast 136 157 2,700 -720 Descending Albuquerque Center
10:46PM 32.1161 -110.9410 121° Southeast  Level Estimated
10:53PM 32.1161 -110.9410 121° Southeast  Level Estimated